Wind from 230 at 3 knots

Air temperature 11.0° C
Visibility: greater than 5.4 NM
Dewpoint 5.0° C

Last reported at 2014-Apr-18 16:20 UTC.
Time now 2014-Apr-18 18:20 UTC

Location: N 59°21' E 017°57'.
View on Google Maps.

See reports from other nearby stations

Tides Stations Pressure Air Temp Water Temp Dewpoint Dewpoint depression Visibility Wind Speed Wind Dir Waves Ship positions

  
sailing weather and tide predictions

STOCKHOLM / BROMMA weather

date/time (UTC)wind fromknots sea level pressurealtimeterstation pressurevisibilityair tempwater tempwave heightnotes
2014-Apr-18 17:20 160 2 10.0
2014-Apr-18 16:50 190 2 5.410.0
2014-Apr-18 16:20 230 3 5.411.0
2014-Apr-18 15:50 5.411.0
2014-Apr-18 15:20 110 3 5.410.0
2014-Apr-18 14:50 120 4 5.410.0
2014-Apr-18 14:20 100 5 5.410.0
2014-Apr-18 13:50 110 6 5.410.0
2014-Apr-18 13:20 130 6 5.4 9.0
2014-Apr-18 12:50 120 5 5.4 9.0
2014-Apr-18 12:20 130 6 5.4 9.0
2014-Apr-18 11:50 110 5 5.4 8.0
2014-Apr-18 11:20 130 6 5.4 8.0
2014-Apr-18 10:50 120 6 5.4 9.0
2014-Apr-18 10:20 120 4 5.4 9.0
2014-Apr-18 09:50 120 4 5.4 8.0
2014-Apr-18 09:20 120 3 5.4 8.0
2014-Apr-18 08:50 150 3 4.3 8.0 Mist.
2014-Apr-18 08:20 180 3 5.4 7.0
2014-Apr-18 07:50 150 6 gusting 17 5.4 7.0
2014-Apr-18 07:20 170 5 5.4 7.0
2014-Apr-18 06:50 160 5 4.3 7.0 Light drizzle.
2014-Apr-18 06:20 160 4 3.2 6.0 Light drizzle.
2014-Apr-18 05:50 160 5 3.2 6.0 Light rain.
2014-Apr-18 05:20 160 6 5.4 6.0 Drizzle.
2014-Apr-18 04:50 170 6 4.3 6.0 Light rain.
2014-Apr-18 04:20 160 7 5.4 6.0 Light drizzle.
2014-Apr-18 03:50 160 6 5.4 6.0 Light rain.
2014-Apr-18 03:20 170 6 5.4 6.0 Light drizzle.
2014-Apr-18 02:50 160 6 5.4 6.0 Light rain.
2014-Apr-18 02:20 160 8 5.4 6.0 Light drizzle.
2014-Apr-18 01:50 170 8 5.4 6.0 Light rain.
2014-Apr-18 01:20 170 9 5.4 6.0 Drizzle.
2014-Apr-18 00:50 170 8 5.4 6.0 Drizzle.
2014-Apr-18 00:20 160 10 5.4 6.0 Drizzle.
2014-Apr-17 23:50 170 9 5.4 6.0 Light rain.
2014-Apr-17 23:20 160 8 5.4 6.0 Light drizzle.
2014-Apr-17 22:50 160 9 5.4 6.0 Light drizzle.
2014-Apr-17 22:20 160 9 5.4 6.0 Drizzle.
2014-Apr-17 21:50 180 10 5.4 7.0 Drizzle.
2014-Apr-17 21:20 180 8 5.4 7.0 Light rain.
2014-Apr-17 20:50 180 8 5.4 7.0 Light rain.
2014-Apr-17 20:20 190 10 5.4 8.0
2014-Apr-17 19:50 180 8 5.4 8.0
2014-Apr-17 19:20 170 10 8.0
2014-Apr-17 18:50 170 11 9.0
2014-Apr-17 18:20 170 11 9.0
2014-Apr-17 17:50 170 12 8.0
2014-Apr-17 16:20 170 16 9.0
2014-Apr-17 15:20 170 10 gusting 20 11.0
2014-Apr-17 14:50 200 12 gusting 22 11.0
2014-Apr-17 14:20 180 14 11.0
2014-Apr-17 13:50 190 11 gusting 20 11.0
2014-Apr-17 13:20 180 14 12.0
2014-Apr-17 12:50 170 15 12.0
2014-Apr-17 12:20 180 13 13.0
2014-Apr-17 11:50 190 11 gusting 20 13.0
2014-Apr-17 11:20 180 12 12.0
2014-Apr-17 10:50 210 10 12.0
2014-Apr-17 10:20 230 14 gusting 24 11.0
2014-Apr-17 09:50 220 13 12.0
2014-Apr-17 09:20 210 14 12.0
2014-Apr-17 08:50 220 14 12.0
2014-Apr-17 08:20 210 14 11.0
2014-Apr-17 07:50 210 11 11.0
2014-Apr-17 07:20 230 11 10.0
2014-Apr-17 06:50 230 11 10.0
2014-Apr-17 06:20 220 10 9.0
2014-Apr-17 05:50 230 9 8.0
2014-Apr-17 05:20 230 9 7.0
2014-Apr-17 04:50 220 10 6.0
2014-Apr-17 04:20 220 8 6.0
2014-Apr-17 03:50 230 9 6.0
2014-Apr-17 03:20 220 9 7.0
2014-Apr-17 02:50 230 9 5.4 7.0
2014-Apr-17 02:20 230 10 5.4 7.0
2014-Apr-17 01:50 230 9 5.4 7.0
2014-Apr-17 01:20 230 7 5.4 7.0
2014-Apr-17 00:50 230 8 5.4 7.0
2014-Apr-17 00:20 230 10 5.4 8.0
2014-Apr-16 23:50 230 7 5.4 8.0
2014-Apr-16 23:20 230 8 5.4 8.0
2014-Apr-16 22:50 240 7 5.4 8.0
2014-Apr-16 22:20 210 7 5.4 7.0
2014-Apr-16 21:50 210 7 5.4 7.0
2014-Apr-16 21:20 200 7 5.4 7.0
2014-Apr-16 20:50 190 7 5.4 7.0
2014-Apr-16 20:20 210 8 5.4 7.0
2014-Apr-16 19:50 210 8 7.0
2014-Apr-16 19:20 190 8 7.0
2014-Apr-16 18:50 180 7 7.0
2014-Apr-16 18:20 190 7 7.0